createdAt,value
2022-10-18T00:00:52.669Z,56
2022-10-18T00:03:25.422Z,56
2022-10-18T00:05:58.355Z,56
2022-10-18T00:08:29.868Z,57
2022-10-18T00:13:36.591Z,56
2022-10-18T00:16:07.072Z,56
2022-10-18T00:18:38.436Z,56
2022-10-18T00:21:09.871Z,56
2022-10-18T00:23:40.841Z,56
2022-10-18T00:26:12.827Z,56
2022-10-18T00:28:44.722Z,56
2022-10-18T00:31:15.709Z,56
2022-10-18T00:33:52.720Z,56
2022-10-18T00:36:24.374Z,57
2022-10-18T00:38:55.588Z,57
2022-10-18T00:41:37.302Z,57
2022-10-18T00:44:09.303Z,56
2022-10-18T00:46:38.938Z,57
2022-10-18T00:49:10.132Z,57
2022-10-18T00:51:41.039Z,56
2022-10-18T00:54:11.734Z,57
2022-10-18T00:56:43.014Z,57
2022-10-18T00:59:13.719Z,57
2022-10-18T01:01:44.976Z,57
2022-10-18T01:04:15.877Z,57
2022-10-18T01:06:48.130Z,57
2022-10-18T01:09:19.959Z,57
2022-10-18T01:11:51.648Z,57
2022-10-18T01:14:22.878Z,57
2022-10-18T01:16:52.577Z,56
2022-10-18T01:19:23.755Z,57
2022-10-18T01:21:55.610Z,58
2022-10-18T01:24:27.201Z,58
2022-10-18T01:26:57.052Z,58
2022-10-18T01:29:28.351Z,58
2022-10-18T01:32:01.724Z,57
2022-10-18T01:34:33.256Z,58
2022-10-18T01:37:04.154Z,57
2022-10-18T01:39:35.810Z,58
2022-10-18T01:42:06.650Z,57
2022-10-18T01:44:37.437Z,58
2022-10-18T01:47:08.598Z,57
2022-10-18T01:49:40.077Z,58
2022-10-18T01:52:12.081Z,57
2022-10-18T01:54:43.852Z,57
2022-10-18T01:57:14.514Z,58
2022-10-18T01:59:45.850Z,58
2022-10-18T02:02:17.059Z,57
2022-10-18T02:04:47.692Z,57
2022-10-18T02:07:24.806Z,57
2022-10-18T02:09:57.058Z,56
2022-10-18T02:12:28.521Z,56
2022-10-18T02:14:59.482Z,56
2022-10-18T02:17:30.425Z,56
2022-10-18T02:20:01.655Z,56
2022-10-18T02:22:36.501Z,55
2022-10-18T02:25:08.019Z,56
2022-10-18T02:27:39.100Z,56
2022-10-18T02:30:08.646Z,56
2022-10-18T02:32:39.658Z,55
2022-10-18T02:35:10.527Z,55
2022-10-18T02:37:41.587Z,55
2022-10-18T02:40:13.347Z,55
2022-10-18T02:42:45.002Z,55
2022-10-18T02:45:23.161Z,55
2022-10-18T02:47:54.486Z,56
2022-10-18T02:50:28.198Z,56
2022-10-18T02:52:59.546Z,57
2022-10-18T02:55:30.595Z,56
2022-10-18T02:58:01.822Z,57
2022-10-18T03:00:32.764Z,56
2022-10-18T03:03:03.328Z,57
2022-10-18T03:05:34.697Z,57
2022-10-18T03:08:06.347Z,57
2022-10-18T03:10:39.527Z,56
2022-10-18T03:13:10.710Z,56
2022-10-18T03:15:43.876Z,56
2022-10-18T03:18:15.268Z,56
2022-10-18T03:20:47.375Z,55
2022-10-18T03:23:18.497Z,55
2022-10-18T03:25:51.305Z,55
2022-10-18T03:28:22.212Z,55
2022-10-18T03:30:53.656Z,55
2022-10-18T03:33:24.489Z,56
2022-10-18T03:35:56.659Z,55
2022-10-18T03:38:33.580Z,55
2022-10-18T03:41:05.538Z,55
2022-10-18T03:43:36.799Z,55
2022-10-18T03:46:07.865Z,55
2022-10-18T03:48:39.123Z,55
2022-10-18T03:51:10.043Z,55
2022-10-18T03:53:41.746Z,55
2022-10-18T03:56:22.817Z,55
2022-10-18T03:58:54.192Z,55
2022-10-18T04:01:25.357Z,56
2022-10-18T04:03:56.501Z,56
2022-10-18T04:06:27.704Z,55
2022-10-18T04:09:00.316Z,55
2022-10-18T04:11:31.022Z,54
2022-10-18T04:14:01.818Z,54
2022-10-18T04:16:33.021Z,54
2022-10-18T04:19:04.310Z,53
2022-10-18T04:21:35.182Z,53
2022-10-18T04:24:06.656Z,53
2022-10-18T04:26:37.109Z,53
2022-10-18T04:29:08.417Z,53
2022-10-18T04:31:40.184Z,52
2022-10-18T04:34:11.348Z,52
2022-10-18T04:36:42.559Z,52
2022-10-18T04:39:13.802Z,52
2022-10-18T04:41:45.395Z,52
2022-10-18T04:44:16.788Z,52
2022-10-18T04:46:46.966Z,52
2022-10-18T04:49:17.358Z,52
2022-10-18T04:51:49.213Z,52
2022-10-18T04:54:21.927Z,52
2022-10-18T04:56:53.086Z,52
2022-10-18T04:59:23.872Z,51
2022-10-18T05:04:34.624Z,51
2022-10-18T05:07:05.778Z,52
2022-10-18T05:09:36.978Z,52
2022-10-18T05:12:11.276Z,52
2022-10-18T05:14:44.142Z,52
2022-10-18T05:17:16.031Z,51
2022-10-18T05:19:45.487Z,51
2022-10-18T05:22:16.998Z,52
2022-10-18T05:24:47.639Z,52
2022-10-18T05:27:18.363Z,51
2022-10-18T05:29:50.984Z,51
2022-10-18T05:32:22.903Z,52
2022-10-18T05:34:52.099Z,52
2022-10-18T05:37:27.441Z,51
2022-10-18T05:39:54.348Z,51
2022-10-18T05:42:25.766Z,51
2022-10-18T05:44:58.299Z,50
2022-10-18T05:47:29.513Z,51
2022-10-18T05:50:03.913Z,50
2022-10-18T05:52:34.620Z,50
2022-10-18T05:55:08.118Z,50
2022-10-18T05:57:39.387Z,50
2022-10-18T06:00:12.408Z,50
2022-10-18T06:02:44.350Z,51
2022-10-18T06:05:14.935Z,50
2022-10-18T06:07:46.455Z,49
2022-10-18T06:10:17.064Z,49
2022-10-18T06:12:47.598Z,49
2022-10-18T06:15:18.157Z,49
2022-10-18T06:17:49.308Z,48
2022-10-18T06:20:20.181Z,48
2022-10-18T06:22:51.164Z,48
2022-10-18T06:25:23.928Z,48
2022-10-18T06:27:55.073Z,48
2022-10-18T06:30:26.072Z,47
2022-10-18T06:32:57.116Z,47
2022-10-18T06:35:28.951Z,46
2022-10-18T06:38:00.327Z,46
2022-10-18T06:40:31.245Z,47
2022-10-18T06:43:16.492Z,47
2022-10-18T06:45:32.980Z,46
2022-10-18T06:48:08.789Z,47
2022-10-18T06:50:40.724Z,46
2022-10-18T06:53:11.126Z,46
2022-10-18T06:55:42.024Z,47
2022-10-18T06:58:13.600Z,46
2022-10-18T07:00:49.692Z,46
2022-10-18T07:03:22.164Z,46
2022-10-18T07:05:52.681Z,46
2022-10-18T07:08:23.423Z,45
2022-10-18T07:10:53.982Z,45
2022-10-18T07:13:38.857Z,46
2022-10-18T07:15:53.366Z,46
2022-10-18T07:18:24.234Z,48
2022-10-18T07:21:00.249Z,46
2022-10-18T07:23:31.379Z,45
2022-10-18T07:26:00.742Z,45
2022-10-18T07:28:33.075Z,45
2022-10-18T07:31:05.957Z,43
2022-10-18T07:33:35.457Z,44
2022-10-18T07:36:05.979Z,43
2022-10-18T07:38:37.231Z,43
2022-10-18T07:41:09.479Z,43
2022-10-18T07:43:40.066Z,43
2022-10-18T07:46:11.069Z,42
2022-10-18T07:48:41.539Z,42
2022-10-18T07:51:14.088Z,42
2022-10-18T07:53:45.384Z,42
2022-10-18T07:56:16.235Z,42
2022-10-18T07:58:48.465Z,42
2022-10-18T08:01:19.213Z,43
2022-10-18T08:03:49.645Z,43
2022-10-18T08:06:20.167Z,43
2022-10-18T08:08:50.573Z,43
2022-10-18T08:11:22.250Z,43
2022-10-18T08:13:53.763Z,43
2022-10-18T08:16:24.399Z,43
2022-10-18T08:18:54.746Z,43
2022-10-18T08:21:25.548Z,43
2022-10-18T08:23:56.145Z,43
2022-10-18T08:26:27.665Z,40
2022-10-18T08:29:17.833Z,40
2022-10-18T08:31:34.701Z,41
2022-10-18T08:34:05.336Z,41
2022-10-18T08:36:36.445Z,39
2022-10-18T08:39:06.930Z,39
2022-10-18T08:41:37.365Z,40
2022-10-18T08:44:07.929Z,40
2022-10-18T08:46:39.239Z,38
2022-10-18T08:49:09.740Z,38
2022-10-18T08:51:40.386Z,38
2022-10-18T08:54:17.994Z,37
2022-10-18T08:56:48.086Z,38
2022-10-18T08:59:23.258Z,37
2022-10-18T09:01:51.675Z,37
2022-10-18T09:04:22.337Z,36
2022-10-18T09:06:53.068Z,36
2022-10-18T09:09:24.871Z,36
2022-10-18T09:11:59.467Z,36
2022-10-18T09:14:28.103Z,36
2022-10-18T09:16:59.379Z,36
2022-10-18T09:19:29.853Z,35
2022-10-18T09:22:00.507Z,35
2022-10-18T09:24:30.949Z,35
2022-10-18T09:27:01.822Z,34
2022-10-18T09:29:32.758Z,35
2022-10-18T09:32:05.604Z,35
2022-10-18T09:34:36.436Z,34
2022-10-18T09:37:07.622Z,34
2022-10-18T09:39:39.567Z,35
2022-10-18T09:42:11.300Z,35
2022-10-18T09:44:44.733Z,34
2022-10-18T09:47:16.981Z,34
2022-10-18T09:49:46.982Z,34
2022-10-18T09:52:19.825Z,34
2022-10-18T09:54:50.362Z,34
2022-10-18T09:57:20.546Z,33
2022-10-18T09:59:52.374Z,32
2022-10-18T10:02:21.426Z,32
2022-10-18T10:04:53.066Z,33
2022-10-18T10:07:22.593Z,33
2022-10-18T10:09:53.268Z,33
2022-10-18T10:12:23.998Z,33
2022-10-18T10:14:54.844Z,33
2022-10-18T10:17:25.589Z,33
2022-10-18T10:20:01.482Z,33
2022-10-18T10:22:31.444Z,34
2022-10-18T10:25:02.456Z,34
2022-10-18T10:27:34.425Z,33
2022-10-18T10:30:07.189Z,33
2022-10-18T10:32:35.141Z,33
2022-10-18T10:35:07.926Z,34
2022-10-18T10:37:37.363Z,34
2022-10-18T10:40:27.757Z,33
2022-10-18T10:42:40.094Z,33
2022-10-18T10:45:09.288Z,33
2022-10-18T10:47:39.670Z,34
2022-10-18T10:50:08.956Z,33
2022-10-18T10:52:40.359Z,33
2022-10-18T10:55:30.668Z,33
2022-10-18T10:57:41.841Z,32
2022-10-18T11:00:14.382Z,32
2022-10-18T11:02:51.163Z,32
2022-10-18T11:05:15.345Z,32
2022-10-18T11:07:46.000Z,33
2022-10-18T11:10:16.412Z,33
2022-10-18T11:12:46.986Z,32
2022-10-18T11:15:17.804Z,31
2022-10-18T11:17:46.716Z,31
2022-10-18T11:20:17.067Z,32
2022-10-18T11:22:53.987Z,32
2022-10-18T11:25:24.575Z,31
2022-10-18T11:27:54.733Z,32
2022-10-18T11:30:25.158Z,30
2022-10-18T11:32:56.951Z,30
2022-10-18T11:35:27.514Z,30
2022-10-18T11:37:56.700Z,31
2022-10-18T11:40:27.568Z,31
2022-10-18T11:42:58.686Z,30
2022-10-18T11:48:00.185Z,30
2022-10-18T11:50:30.858Z,30
2022-10-18T11:53:01.312Z,31
2022-10-18T11:55:33.393Z,30
2022-10-18T11:58:04.772Z,29
2022-10-18T12:00:35.358Z,30
2022-10-18T12:03:06.121Z,30
2022-10-18T12:05:37.184Z,31
2022-10-18T12:08:07.969Z,30
2022-10-18T12:10:45.833Z,30
2022-10-18T12:13:09.365Z,30
2022-10-18T12:15:39.890Z,29
2022-10-18T12:18:11.573Z,30
2022-10-18T12:20:44.706Z,30
2022-10-18T12:25:59.474Z,30
2022-10-18T12:28:30.103Z,30
2022-10-18T12:31:00.786Z,29
2022-10-18T12:33:32.257Z,28
2022-10-18T12:36:03.095Z,29
2022-10-18T12:38:33.848Z,30
2022-10-18T12:41:05.688Z,30
2022-10-18T12:43:36.433Z,29
2022-10-18T12:46:12.363Z,29
2022-10-18T12:48:40.296Z,30
2022-10-18T12:51:10.501Z,30
2022-10-18T12:53:48.635Z,29
2022-10-18T12:56:21.955Z,29
2022-10-18T12:58:53.080Z,29
2022-10-18T13:01:23.507Z,29
2022-10-18T13:03:55.564Z,29
2022-10-18T13:06:26.260Z,29
2022-10-18T13:08:56.921Z,29
2022-10-18T13:11:33.488Z,28
2022-10-18T13:14:08.151Z,29
2022-10-18T13:16:38.750Z,28
2022-10-18T13:19:09.558Z,28
2022-10-18T13:21:41.671Z,28
2022-10-18T13:24:12.412Z,29
2022-10-18T13:26:42.793Z,29
2022-10-18T13:29:13.709Z,29
2022-10-18T13:31:47.280Z,29
2022-10-18T13:34:17.335Z,29
2022-10-18T13:36:47.953Z,29
2022-10-18T13:39:18.362Z,29
2022-10-18T13:41:53.804Z,29
2022-10-18T13:44:24.406Z,30
2022-10-18T13:46:59.878Z,31
2022-10-18T13:49:30.411Z,29
2022-10-18T13:52:01.346Z,29
2022-10-18T13:54:33.810Z,30
2022-10-18T13:57:04.453Z,29
2022-10-18T14:02:05.842Z,29
2022-10-18T14:04:36.398Z,29
2022-10-18T14:07:05.476Z,31
2022-10-18T14:09:45.056Z,32
2022-10-18T14:12:14.973Z,30
2022-10-18T14:14:46.382Z,31
2022-10-18T14:17:17.990Z,31
2022-10-18T14:19:52.519Z,30
2022-10-18T14:22:23.310Z,31
2022-10-18T14:24:53.866Z,31
2022-10-18T14:27:28.272Z,31
2022-10-18T14:29:59.543Z,30
2022-10-18T14:32:30.392Z,30
2022-10-18T14:35:30.923Z,31
2022-10-18T14:37:32.187Z,31
2022-10-18T14:40:04.289Z,31
2022-10-18T14:42:35.575Z,31
2022-10-18T14:45:06.917Z,31
2022-10-18T14:50:20.130Z,31
2022-10-18T14:53:09.321Z,31
2022-10-18T14:55:42.280Z,31
2022-10-18T14:58:13.775Z,32
2022-10-18T15:00:51.274Z,32
2022-10-18T15:03:28.665Z,33
2022-10-18T15:06:00.607Z,32
2022-10-18T15:08:37.752Z,32
2022-10-18T15:11:13.514Z,32
2022-10-18T15:13:43.749Z,32
2022-10-18T15:16:18.196Z,34
2022-10-18T15:18:48.007Z,33
2022-10-18T15:21:19.204Z,33
2022-10-18T15:23:55.946Z,33
2022-10-18T15:26:28.406Z,34
2022-10-18T15:29:01.433Z,35
2022-10-18T15:31:31.462Z,35
2022-10-18T15:34:00.941Z,34
2022-10-18T15:36:30.594Z,34
2022-10-18T15:39:01.775Z,35
2022-10-18T15:41:33.120Z,35
2022-10-18T15:44:04.642Z,35
2022-10-18T15:46:40.262Z,35
2022-10-18T15:49:16.638Z,36
2022-10-18T15:51:48.306Z,35
2022-10-18T15:54:20.145Z,36
2022-10-18T15:56:51.415Z,36
2022-10-18T15:59:25.607Z,37
2022-10-18T16:01:56.676Z,37
2022-10-18T16:07:05.741Z,37
2022-10-18T16:09:40.892Z,38
2022-10-18T16:12:12.066Z,38
2022-10-18T16:14:43.635Z,39
2022-10-18T16:17:14.917Z,39
2022-10-18T16:19:46.395Z,41
2022-10-18T16:22:17.551Z,40
2022-10-18T16:24:50.266Z,40
2022-10-18T16:27:20.944Z,40
2022-10-18T16:29:52.476Z,40
2022-10-18T16:32:25.840Z,41
2022-10-18T16:34:58.521Z,42
2022-10-18T16:37:30.847Z,42
2022-10-18T16:40:03.308Z,43
2022-10-18T16:42:36.156Z,43
2022-10-18T16:45:07.368Z,43
2022-10-18T16:47:39.414Z,43
2022-10-18T16:50:10.714Z,44
2022-10-18T16:52:41.601Z,44
2022-10-18T16:55:13.716Z,45
2022-10-18T16:57:50.390Z,45
2022-10-18T17:00:24.521Z,46
2022-10-18T17:02:56.905Z,46
2022-10-18T17:05:28.308Z,47
2022-10-18T17:08:04.482Z,47
2022-10-18T17:10:41.520Z,47
2022-10-18T17:13:13.410Z,48
2022-10-18T17:15:45.019Z,48
2022-10-18T17:18:18.190Z,49
2022-10-18T17:20:49.262Z,49
2022-10-18T17:23:20.723Z,50
2022-10-18T17:25:57.906Z,51
2022-10-18T17:28:23.694Z,51
2022-10-18T17:30:56.993Z,51
2022-10-18T17:33:28.542Z,51
2022-10-18T17:36:01.149Z,51
2022-10-18T17:38:31.648Z,51
2022-10-18T17:41:02.980Z,51
2022-10-18T17:43:36.167Z,51
2022-10-18T17:46:07.907Z,52
2022-10-18T17:51:14.438Z,52
2022-10-18T17:53:55.600Z,52
2022-10-18T17:56:34.370Z,52
2022-10-18T17:59:05.327Z,52
2022-10-18T18:01:36.753Z,52
2022-10-18T18:04:07.880Z,53
2022-10-18T18:06:38.969Z,53
2022-10-18T18:09:10.399Z,52
2022-10-18T18:11:42.365Z,53
2022-10-18T18:14:14.016Z,52
2022-10-18T18:16:46.938Z,52
2022-10-18T18:19:17.839Z,53
2022-10-18T18:21:49.165Z,54
2022-10-18T18:24:20.710Z,54
2022-10-18T18:26:51.859Z,54
2022-10-18T18:29:22.861Z,54
2022-10-18T18:31:56.359Z,54
2022-10-18T18:34:27.968Z,53
2022-10-18T18:36:59.934Z,54
2022-10-18T18:39:32.120Z,54
2022-10-18T18:42:04.378Z,54
2022-10-18T18:44:36.189Z,54
2022-10-18T18:47:13.229Z,54
2022-10-18T18:49:47.242Z,55
2022-10-18T18:52:18.334Z,55
2022-10-18T18:54:51.751Z,55
2022-10-18T18:57:24.265Z,55
2022-10-18T18:59:58.600Z,54
2022-10-18T19:02:30.362Z,54
2022-10-18T19:05:01.373Z,54
2022-10-18T19:07:33.014Z,54
2022-10-18T19:10:02.544Z,54
2022-10-18T19:12:34.423Z,53
2022-10-18T19:15:07.013Z,54
2022-10-18T19:17:38.812Z,54
2022-10-18T19:20:10.161Z,54
2022-10-18T19:22:41.020Z,54
2022-10-18T19:25:11.791Z,54
2022-10-18T19:27:52.822Z,55
2022-10-18T19:30:25.618Z,54
2022-10-18T19:32:59.824Z,54
2022-10-18T19:35:29.742Z,54
2022-10-18T19:38:02.280Z,54
2022-10-18T19:40:35.410Z,55
2022-10-18T19:43:04.952Z,56
2022-10-18T19:45:38.444Z,56
2022-10-18T19:48:12.407Z,55
2022-10-18T19:50:41.279Z,55
2022-10-18T19:53:12.796Z,55
2022-10-18T19:55:44.469Z,54
2022-10-18T19:58:16.027Z,54
2022-10-18T20:00:52.582Z,54
2022-10-18T20:03:23.921Z,53
2022-10-18T20:05:57.536Z,53
2022-10-18T20:08:34.538Z,53
2022-10-18T20:11:11.252Z,53
2022-10-18T20:13:43.366Z,53
2022-10-18T20:16:14.807Z,53
2022-10-18T20:18:46.236Z,53
2022-10-18T20:21:16.785Z,53
2022-10-18T20:23:48.088Z,53
2022-10-18T20:26:20.729Z,53
2022-10-18T20:28:52.456Z,53
2022-10-18T20:31:24.449Z,53
2022-10-18T20:33:56.736Z,53
2022-10-18T20:36:28.561Z,54
2022-10-18T20:38:59.976Z,54
2022-10-18T20:41:31.628Z,54
2022-10-18T20:44:06.600Z,54
2022-10-18T20:46:38.832Z,54
2022-10-18T20:49:10.482Z,54
2022-10-18T20:51:41.583Z,54
2022-10-18T20:54:14.512Z,54
2022-10-18T20:56:46.080Z,54
2022-10-18T20:59:17.150Z,54
2022-10-18T21:01:51.157Z,54
2022-10-18T21:04:22.594Z,54
2022-10-18T21:06:54.136Z,55
2022-10-18T21:09:24.382Z,55
2022-10-18T21:11:56.512Z,55
2022-10-18T21:14:27.625Z,55
2022-10-18T21:16:59.969Z,56
2022-10-18T21:19:33.088Z,56
2022-10-18T21:22:05.079Z,56
2022-10-18T21:24:36.226Z,56
2022-10-18T21:27:07.299Z,56
2022-10-18T21:29:39.360Z,56
2022-10-18T21:32:09.198Z,56
2022-10-18T21:34:40.838Z,56
2022-10-18T21:37:13.370Z,56
2022-10-18T21:39:44.448Z,56
2022-10-18T21:42:18.280Z,57
2022-10-18T21:44:50.425Z,57
2022-10-18T21:47:22.686Z,58
2022-10-18T21:49:55.301Z,58
2022-10-18T21:52:28.640Z,58
2022-10-18T21:54:59.788Z,57
2022-10-18T21:57:32.343Z,58
2022-10-18T22:00:09.635Z,58
2022-10-18T22:02:41.864Z,58
2022-10-18T22:05:13.794Z,58
2022-10-18T22:07:45.113Z,58
2022-10-18T22:10:16.960Z,59
2022-10-18T22:12:48.381Z,59
2022-10-18T22:15:20.285Z,59
2022-10-18T22:17:50.436Z,59
2022-10-18T22:20:21.545Z,59
2022-10-18T22:22:51.896Z,58
2022-10-18T22:25:22.664Z,58
2022-10-18T22:27:53.102Z,58
2022-10-18T22:30:25.720Z,58
2022-10-18T22:32:56.455Z,58
2022-10-18T22:35:27.161Z,58
2022-10-18T22:37:58.582Z,59
2022-10-18T22:40:31.667Z,59
2022-10-18T22:43:02.174Z,59
2022-10-18T22:45:32.728Z,59
2022-10-18T22:48:04.135Z,60
2022-10-18T22:50:34.952Z,60
2022-10-18T22:53:05.663Z,60
2022-10-18T22:55:36.538Z,60
2022-10-18T22:58:13.639Z,60
2022-10-18T23:00:44.645Z,61
2022-10-18T23:03:15.095Z,61
2022-10-18T23:05:46.344Z,62
2022-10-18T23:08:19.011Z,61
2022-10-18T23:10:50.265Z,61
2022-10-18T23:13:21.000Z,61
2022-10-18T23:15:51.930Z,61
2022-10-18T23:18:22.844Z,61
2022-10-18T23:20:55.487Z,61
2022-10-18T23:23:26.056Z,62
2022-10-18T23:26:01.320Z,62
2022-10-18T23:28:33.470Z,62
2022-10-18T23:31:04.126Z,62
2022-10-18T23:33:34.351Z,62
2022-10-18T23:36:08.305Z,62
2022-10-18T23:38:38.119Z,62
2022-10-18T23:41:10.067Z,62
2022-10-18T23:43:40.901Z,62
2022-10-18T23:46:11.633Z,62
2022-10-18T23:48:46.716Z,62
2022-10-18T23:51:17.825Z,62
2022-10-18T23:53:48.635Z,62
2022-10-18T23:56:19.952Z,62
2022-10-18T23:58:50.959Z,62
